Flight Track Log - Related Links

Times and Time Zones

All times are in EDT time to prevent confusion due to time zone crossing. See the N983CE flight status page for this flight to view local times or setup timezone preferences in your user account.

Time Position Orientation Groundspeed Altitude Reporting Facility
EDT Latitude Longitude Course Direction KTS MPH feet Rate Location/Type
Mon 10:23:20 AM 42.6675 -83.3986 85° East 158 182 1,800  Level Cleveland Center
Mon 10:24:10 AM 42.6711 -83.3364 85° East 233 268 4,100 3,239 Climbing Cleveland Center
Mon 10:25:13 AM 42.6839 -83.2383 80° East 260 299 7,900 3,726 Climbing Cleveland Center
Mon 10:26:14 AM 42.6522 -83.1633 120° Southeast 251 289 11,800 3,669 Climbing Cleveland Center
Mon 10:27:14 AM 42.5772 -83.1631 180° South 204 235 15,300 2,975 Climbing Cleveland Center
Mon 10:28:15 AM 42.4933 -83.1794 188° South 246 283 17,800 2,319 Climbing Cleveland Center
Mon 10:29:13 AM 42.4033 -83.1983 189° South 278 320 19,900 1,119 Climbing Cleveland Center
Mon 10:30:13 AM 42.3092 -83.2142 187° South 320 368 20,000 33 Climbing Cleveland Center
Mon 10:32:14 AM 42.1206 -83.2567 189° South 367 422 20,000  Level Cleveland Center
Mon 10:33:12 AM 42.0200 -83.2747 188° South 367 422 20,000  Level Cleveland Center
Mon 10:34:13 AM 41.9217 -83.2931 188° South 367 422 20,000  Level Cleveland Center
Mon 10:35:14 AM 41.8211 -83.3139 189° South 372 428 20,000  Level Cleveland Center
Mon 10:37:15 AM 41.6292 -83.4028 199° South 367 422 20,000  Level Cleveland Center
Mon 10:39:13 AM 41.4325 -83.4961 200° South 372 428 20,000  Level Indianapolis Center
Mon 10:40:14 AM 41.3369 -83.5436 200° South 368 423 20,000  Level Indianapolis Center
Mon 10:41:16 AM 41.2400 -83.5897 200° South 367 422 20,000  Level Indianapolis Center
Mon 10:42:18 AM 41.1439 -83.6364 200° South 365 420 20,000  Level Indianapolis Center
Mon 10:43:13 AM 41.0464 -83.6861 201° Southwest 372 428 20,000  Level Cleveland Center
Mon 10:44:13 AM 40.9494 -83.7283 198° South 371 427 20,000  Level Cleveland Center
Mon 10:45:23 AM 40.8339 -83.7861 201° Southwest 373 429 20,000  Level Indianapolis Center
Mon 10:46:25 AM 40.7372 -83.8333 200° South 370 426 20,000  Level Indianapolis Center
Mon 10:48:00 AM 40.6085 -83.8903 199° South  Level FlightAware Approximate
Mon 10:48:28 AM 40.5431 -83.9242 199° South 367 422 20,000  Level Indianapolis Center
Mon 10:50:00 AM 40.4179 -83.9769 198° South  Level FlightAware Approximate
Mon 10:50:32 AM 40.3506 -84.0142 198° South 362 417 18,600  Level Indianapolis Center
Mon 10:51:48 AM 40.2158 -84.0161 181° South 347 399 16,000 -2,043 Descending Indianapolis Center
Mon 10:53:00 AM 40.0959 -83.9653 166° South  Level FlightAware Approximate
Mon 10:53:37 AM 40.0544 -84.0067 166° South 338 389 12,300  Level Indianapolis Center
Mon 10:55:00 AM 39.9471 -83.9325 152° Southeast  Level FlightAware Approximate
Mon 10:55:51 AM 39.8839 -84.1364 152° Southeast 287 330 9,600  Level Indianapolis Center
Mon 10:56:42 AM 39.8344 -84.1722 209° Southwest 286 329 8,300 -1,424 Descending Indianapolis Center
Mon 10:58:00 AM 39.7375 -84.2447 210° Southwest  Level Estimated
Mon 10:59:47 AM 39.6367 -84.3197 210° Southwest 247 284 4,000  Level Indianapolis Center
Mon 11:01:49 AM 39.5333 -84.4000 211° Southwest 234 269 3,000 -419 Descending Cincinnati TRACON
Mon 11:02:53 AM 39.4692 -84.4447 208° Southwest 232 267 2,700 -300 Descending Indianapolis Center
Mon 11:04:49 AM 39.4167 -84.5500 237° Southwest 170 196 2,100 -310 Descending Cincinnati TRACON
Mon 11:05:00 AM 39.3638 -84.5219 210° Southwest  Level Estimated
Mon 11:06:00 AM 39.3638 -84.5219 311° West  Level Estimated
Mon 11:13:00 AM 39.3638 -84.5219 311° West  Level Estimated
Mon 11:14:00 AM 39.3638 -84.5219 311° West  Level Estimated

Login

Don't have an account? Register now (free) for customized features, flight alerts, and more!